Latest Weather Observations for Moree

IDN60801

Issued at 10:33 am EST Friday 1 July 2016 (issued every 30 minutes, with the page automatically refreshed every 10 minutes)

About weather observations | Map of weather stations | Latest weather observations for NSW | Other Formats
Station Details ID: 053115 Name: MOREE AERO Lat: -29.49 Lon: 149.85 Height: 213.0 m
Data from the previous 72 hours. | See also: Recent months at Moree
Date/Time
EST
Temp
°C
App
Temp
°C
Dew
Point
°C
Rel
Hum
%
Delta-T
°C
Wind Press
QNH
hPa
Press
MSL
hPa
Rain since
9am
mm
Dir  Spd
km/h
Gust
km/h
Spd
kts
Gust
kts
01/10:00am 10.8 6.2 5.6 70 2.4 SW 19 22 10 12 1022.8 1022.9 0.0
01/09:30am 10.3 6.2 6.1 75 2.0 SW 17 24 9 13 1022.6 1022.6 0.0
01/09:00am 9.1 6.3 5.1 76 1.8 WNW 9 11 5 6 1022.5 1022.5 0.0
01/08:30am 7.2 6.0 4.5 83 1.2 CALM 0 0 0 0 1022.3 1022.3 0.0
01/08:00am 5.2 3.2 4.2 93 0.4 ENE 4 7 2 4 1022.2 1022.2 0.0
01/07:30am 3.2 -0.8 2.6 96 0.2 NE 13 15 7 8 1021.9 1021.9 0.0
01/07:00am 1.8 -2.5 1.2 96 0.2 NE 13 13 7 7 1021.6 1021.6 0.0
01/06:30am 2.4 -1.8 1.8 96 0.2 NE 13 13 7 7 1021.1 1021.2 0.0
01/06:00am 2.0 -1.9 1.4 96 0.2 NE 11 13 6 7 1020.8 1020.9 0.0
01/05:30am 2.5 -0.5 1.9 96 0.2 NE 7 9 4 5 1020.5 1020.6 0.0
01/05:00am 2.7 -0.3 2.0 95 0.3 ENE 7 9 4 5 1020.2 1020.2 0.0
01/04:30am 2.8 1.1 2.1 95 0.3 CALM 0 0 0 0 1020.1 1020.1 0.0
01/04:00am 3.7 0.9 3.0 95 0.3 NE 7 7 4 4 1020.0 1020.0 0.0
01/03:30am 3.0 -0.3 2.3 95 0.3 NE 9 11 5 6 1019.8 1019.8 0.0
01/03:00am 3.0 -1.5 2.3 95 0.3 NE 15 15 8 8 1019.8 1019.8 0.0
01/02:30am 3.7 2.2 3.0 95 0.3 CALM 0 0 0 0 1020.2 1020.2 0.0
01/02:00am 3.7 1.8 2.8 94 0.4 ENE 2 7 1 4 1020.1 1020.1 0.0
01/01:30am 3.9 1.3 3.0 94 0.4 ENE 6 9 3 5 1020.1 1020.1 0.0
01/01:00am 4.0 1.2 3.0 93 0.4 ENE 7 9 4 5 1020.1 1020.1 0.0
01/12:30am 4.1 1.3 3.1 93 0.4 ENE 7 7 4 4 1020.2 1020.2 0.0
01/12:00am 4.3 1.5 3.1 92 0.5 NE 7 9 4 5 1020.2 1020.2 0.0
 
Date/Time
EST
Temp
°C
App
Temp
°C
Dew
Point
°C
Rel
Hum
%
Delta-T
°C
Wind Press
QNH
hPa
Press
MSL
hPa
Rain since
9am
mm
Dir  Spd
km/h
Gust
km/h
Spd
kts
Gust
kts
30/11:30pm 4.9 2.1 3.2 89 0.7 NE 7 7 4 4 1020.3 1020.3 0.0
30/11:00pm 5.7 2.7 3.9 88 0.8 NNE 9 9 5 5 1020.5 1020.6 0.0
30/10:30pm 6.8 5.6 4.6 86 1.0 CALM 0 0 0 0 1020.4 1020.4 0.0
30/10:00pm 7.1 4.2 4.9 86 1.0 NNE 9 11 5 6 1020.5 1020.6 0.0
30/09:30pm 6.3 2.2 4.3 87 0.9 NE 15 17 8 9 1020.1 1020.1 0.0
30/09:00pm 7.7 4.5 5.2 84 1.1 NE 11 13 6 7 1020.6 1020.7 0.0
30/08:30pm 7.9 5.1 5.2 83 1.2 NNE 9 11 5 6 1020.7 1020.8 0.0
30/08:00pm 8.9 7.9 5.6 80 1.5 CALM 0 0 0 0 1020.8 1020.9 0.0
30/07:30pm 9.7 7.4 5.9 77 1.8 NNW 7 7 4 4 1020.7 1020.8 0.0
30/07:00pm 10.4 8.2 5.4 71 2.3 WNW 6 7 3 4 1020.5 1020.6 0.0
30/06:30pm 11.7 9.5 5.1 64 3.1 WNW 6 7 3 4 1020.5 1020.6 0.0
30/06:00pm 13.1 10.8 5.8 61 3.5 W 7 9 4 5 1020.2 1020.2 0.0
30/05:30pm 13.4 10.3 5.6 59 3.7 W 11 11 6 6 1020.2 1020.2 0.0
30/05:00pm 14.3 12.8 4.9 53 4.4 WNW 2 7 1 4 1019.6 1019.6 0.0
30/04:30pm 15.0 12.1 4.7 50 4.9 WNW 9 11 5 6 1020.0 1020.0 0.0
30/04:00pm 15.7 12.4 4.4 47 5.3 WNW 11 15 6 8 1019.7 1019.7 0.0
30/03:30pm 16.1 12.6 5.4 49 5.2 NW 13 17 7 9 1019.7 1019.7 0.0
30/03:00pm 16.3 13.0 4.4 45 5.6 NNW 11 13 6 7 1020.3 1020.3 0.0
30/02:30pm 16.2 12.5 4.6 46 5.5 NW 13 17 7 9 1020.6 1020.7 0.0
30/02:00pm 16.5 11.0 4.2 44 5.8 NW 22 28 12 15 1020.7 1020.8 0.0
30/01:30pm 16.7 11.6 4.1 43 6.0 NNW 20 28 11 15 1021.2 1021.3 0.0
30/01:00pm 17.3 12.1 5.3 45 5.8 NNW 22 32 12 17 1021.7 1021.7 0.0
30/12:30pm 16.7 11.6 6.2 50 5.2 NNW 22 30 12 16 1022.1 1022.1 0.0
30/12:00pm 17.0 11.1 5.9 48 5.4 NNW 26 33 14 18 1022.9 1022.9 0.0
30/11:30am 16.2 11.2 6.6 53 4.8 N 22 28 12 15 1023.6 1023.6 0.0
30/11:00am 15.5 11.3 7.3 58 4.1 NNE 19 24 10 13 1024.1 1024.1 0.0
30/10:30am 13.4 8.6 5.8 60 3.6 NNE 20 26 11 14 1024.3 1024.3 0.0
30/10:00am 12.7 8.0 6.1 64 3.1 NNE 20 26 11 14 1024.7 1024.8 0.0
30/09:30am 11.4 7.2 5.5 67 2.8 NNE 17 28 9 15 1024.8 1024.9 0.0
30/09:00am 9.4 5.3 4.2 70 2.3 ENE 15 17 8 9 1024.5 1024.6 0.0
30/08:30am 7.2 2.5 3.1 75 1.7 ENE 17 20 9 11 1024.4 1024.5 0.0
30/08:00am 5.1 -0.4 1.9 80 1.3 ENE 20 28 11 15 1024.3 1024.3 0.0
30/07:30am 3.9 -1.1 1.1 82 1.1 ENE 17 28 9 15 1024.0 1024.0 0.0
30/07:00am 2.8 -3.3 0.7 86 0.8 ENE 22 28 12 15 1023.9 1023.9 0.0
30/06:30am 3.1 -3.3 0.8 85 0.9 ENE 24 28 13 15 1023.5 1023.5 0.0
30/06:00am 3.1 -2.9 0.8 85 0.9 E 22 28 12 15 1023.3 1023.3 0.0
30/05:30am 3.0 -3.0 1.1 87 0.7 E 22 30 12 16 1023.1 1023.1 0.0
30/05:00am 2.9 -3.1 1.1 88 0.7 E 22 28 12 15 1023.1 1023.1 0.0
30/04:30am 2.9 -2.7 1.1 88 0.7 E 20 26 11 14 1023.1 1023.1 0.0
30/04:00am 2.7 -2.9 1.1 89 0.6 E 20 28 11 15 1023.2 1023.2 0.0
30/03:30am 2.6 -3.0 1.1 90 0.6 E 20 28 11 15 1023.3 1023.3 0.0
30/03:00am 2.4 -3.1 0.9 90 0.6 ENE 19 24 10 13 1023.5 1023.5 0.0
30/02:30am 2.8 -2.6 1.3 90 0.6 E 19 24 10 13 1023.8 1023.8 0.0
30/02:00am 3.1 -2.2 1.6 90 0.6 ENE 19 24 10 13 1024.2 1024.2 0.0
30/01:30am 2.5 -2.5 1.2 91 0.5 ENE 17 22 9 12 1024.7 1024.8 0.0
30/01:00am 3.0 -0.8 2.0 93 0.4 ENE 11 15 6 8 1024.8 1024.9 0.0
30/12:30am 2.2 -1.8 0.7 90 0.6 E 11 13 6 7 1024.9 1025.0 0.0
30/12:00am 3.9 1.0 2.7 92 0.5 ENE 7 7 4 4 1025.2 1025.3 0.0
 
Date/Time
EST
Temp
°C
App
Temp
°C
Dew
Point
°C
Rel
Hum
%
Delta-T
°C
Wind Press
QNH
hPa
Press
MSL
hPa
Rain since
9am
mm
Dir  Spd
km/h
Gust
km/h
Spd
kts
Gust
kts
29/11:30pm 4.0 1.1 2.7 91 0.5 ENE 7 9 4 5 1025.4 1025.5 0.0
29/11:00pm 4.1 1.2 2.6 90 0.6 E 7 9 4 5 1025.6 1025.7 0.0
29/10:30pm 4.6 1.0 3.1 90 0.6 E 11 13 6 7 1025.7 1025.8 0.0
29/10:00pm 4.8 2.5 2.8 87 0.8 ESE 4 9 2 5 1025.7 1025.8 0.0
29/09:30pm 5.2 3.8 3.4 88 0.8 CALM 0 0 0 0 1025.8 1025.9 0.0
29/09:00pm 6.1 4.8 3.9 86 0.9 CALM 0 0 0 0 1025.9 1026.0 0.0
29/08:30pm 6.1 4.7 3.6 84 1.1 CALM 0 0 0 0 1026.0 1026.1 0.0
29/08:00pm 6.7 5.3 3.5 80 1.4 CALM 0 0 0 0 1026.1 1026.2 0.0
29/07:30pm 8.2 7.0 4.4 77 1.7 CALM 0 0 0 0 1025.9 1026.0 0.0
29/07:00pm 8.1 6.0 3.9 75 1.8 WSW 4 6 2 3 1025.9 1026.0 0.0
29/06:30pm 9.1 6.7 4.1 71 2.2 WSW 6 7 3 4 1025.8 1025.9 0.0
29/06:00pm 10.3 7.6 3.8 64 2.9 WSW 7 7 4 4 1025.8 1025.9 0.0
29/05:30pm 12.8 9.8 4.3 56 3.9 W 9 9 5 5 1025.6 1025.7 0.0
29/05:00pm 14.4 11.3 3.8 49 4.9 WSW 9 9 5 5 1025.5 1025.6 0.0
29/04:30pm 15.5 12.5 4.3 47 5.3 WSW 9 11 5 6 1025.6 1025.7 0.0
29/04:00pm 15.9 13.1 3.0 42 5.9 WNW 7 11 4 6 1025.6 1025.7 0.0
29/03:30pm 16.1 13.0 3.5 43 5.9 WSW 9 15 5 8 1025.5 1025.6 0.0
29/03:00pm 16.0 11.6 2.8 41 6.0 W 15 19 8 10 1025.6 1025.7 0.0
29/02:30pm 15.9 12.8 3.7 44 5.7 W 9 13 5 7 1025.6 1025.7 0.0
29/02:00pm 15.8 11.8 0.8 36 6.5 WSW 11 17 6 9 1025.7 1025.8 0.0
29/01:30pm 15.8 13.0 5.1 49 5.1 WNW 9 13 5 7 1025.8 1025.9 0.0
29/01:00pm 15.1 12.6 4.8 50 4.9 WSW 7 13 4 7 1026.4 1026.4 0.0
29/12:30pm 14.1 11.1 4.1 51 4.6 NW 9 15 5 8 1026.9 1026.9 0.0
29/12:00pm 13.3 10.8 3.7 52 4.3 NNW 6 11 3 6 1027.4 1027.4 0.0
29/11:30am 12.1 10.0 4.1 58 3.6 S 4 7 2 4 1027.9 1027.9 0.0
29/11:00am 12.3 10.9 5.7 64 3.1 E 2 7 1 4 1028.1 1028.1 0.0
29/10:30am 10.6 8.5 5.6 71 2.3 E 6 9 3 5 1028.3 1028.4 0.0
29/10:00am 9.5 7.1 5.3 75 1.9 E 7 11 4 6 1028.4 1028.5 0.0
29/09:30am 7.7 4.8 4.8 82 1.3 ENE 9 11 5 6 1028.5 1028.6 0.0
29/09:00am 6.4 3.7 3.9 84 1.1 ENE 7 9 4 5 1028.4 1028.5 0.0
29/08:30am 5.3 3.9 3.6 89 0.7 CALM 0 0 0 0 1028.4 1028.5 0.0
29/08:00am 2.3 0.5 1.4 94 0.3 CALM 0 0 0 0 1028.4 1028.5 0.0
29/07:30am 0.3 -1.7 -0.3 96 0.2 CALM 0 0 0 0 1028.3 1028.4 0.0
29/07:14am -0.2 -2.3 -0.6 97 0.1 CALM 0 0 0 0 1028.2 1028.2 0.0
29/07:00am -0.4 -2.5 -1.0 96 0.2 CALM 0 0 0 0 1028.1 1028.1 0.0
29/06:30am -0.1 -2.2 -0.7 96 0.2 CALM 0 0 0 0 1027.8 1027.8 0.0
29/06:00am 0.7 -1.3 0.1 96 0.2 CALM 0 0 0 0 1027.5 1027.5 0.0
29/05:30am 1.3 -1.7 0.7 96 0.2 E 6 9 3 5 1027.2 1027.2 0.0
29/05:00am 1.9 -1.6 1.3 96 0.2 ESE 9 13 5 7 1026.9 1026.9 0.0
29/04:30am 1.5 -2.1 0.9 96 0.2 E 9 11 5 6 1026.7 1026.7 0.0
29/04:00am 1.8 -2.5 1.1 95 0.3 E 13 13 7 7 1026.7 1026.7 0.0
29/03:30am 2.6 -0.5 1.6 93 0.4 S 7 9 4 5 1026.8 1026.8 0.0
29/03:00am 2.3 -1.6 1.3 93 0.4 S 11 11 6 6 1027.0 1027.0 0.0
29/02:30am 2.6 -1.3 1.3 91 0.5 SSE 11 11 6 6 1027.1 1027.1 0.0
29/02:00am 3.6 -0.5 2.4 92 0.5 SE 13 13 7 7 1027.1 1027.1 0.0
29/01:30am 3.0 -0.8 2.0 93 0.4 SSE 11 13 6 7 1027.5 1027.5 0.0
29/01:00am 3.0 -0.8 1.7 91 0.5 SSE 11 13 6 7 1028.0 1028.0 0.0
29/12:30am 3.9 -0.2 2.3 89 0.6 SW 13 15 7 8 1027.8 1027.8 0.0
29/12:00am 4.5 -0.3 2.7 88 0.7 WSW 17 17 9 9 1028.1 1028.1 0.0
 
Date/Time
EST
Temp
°C
App
Temp
°C
Dew
Point
°C
Rel
Hum
%
Delta-T
°C
Wind Press
QNH
hPa
Press
MSL
hPa
Rain since
9am
mm
Dir  Spd
km/h
Gust
km/h
Spd
kts
Gust
kts
28/11:30pm 4.4 0.4 2.9 90 0.6 SW 13 15 7 8 1028.2 1028.2 0.0
28/11:00pm 4.5 0.5 2.8 89 0.7 SW 13 15 7 8 1028.2 1028.2 0.0
28/10:30pm 4.9 1.3 3.2 89 0.7 SW 11 13 6 7 1028.3 1028.4 0.0
28/10:00pm 5.1 1.2 3.4 89 0.7 SW 13 15 7 8 1028.1 1028.1 0.0
28/09:30pm 5.7 1.5 3.9 88 0.8 SW 15 17 8 9 1028.1 1028.1 0.0
28/09:00pm 6.5 1.6 4.0 84 1.1 SW 19 22 10 12 1028.1 1028.1 0.0
28/08:30pm 6.8 2.2 3.9 82 1.3 WSW 17 19 9 10 1027.9 1027.9 0.0
28/08:00pm 7.1 3.3 4.1 81 1.3 WSW 13 13 7 7 1027.7 1027.7 0.0
28/07:30pm 7.7 3.6 4.3 79 1.5 WSW 15 17 8 9 1027.6 1027.6 0.0
28/07:00pm 8.3 4.2 4.5 77 1.7 WSW 15 19 8 10 1027.3 1027.3 0.0
28/06:30pm 8.8 4.8 4.8 76 1.8 WSW 15 17 8 9 1027.0 1027.0 0.0
28/06:00pm 9.3 4.9 4.9 74 2.0 SW 17 19 9 10 1026.6 1026.6 0.0
28/05:30pm 10.1 6.1 4.7 69 2.5 SW 15 17 8 9 1026.0 1026.1 0.0
28/05:00pm 11.5 6.7 4.9 64 3.0 SW 19 26 10 14 1025.6 1025.7 0.0
28/04:30pm 12.5 7.6 5.0 60 3.5 SW 20 26 11 14 1025.5 1025.6 0.0
28/04:00pm 12.8 6.3 4.5 57 3.8 SSW 28 33 15 18 1025.3 1025.4 0.0
28/03:30pm 12.7 6.5 4.2 56 3.9 SSW 26 33 14 18 1025.2 1025.3 0.0
28/03:00pm 12.8 6.2 4.3 56 3.9 SSW 28 33 15 18 1024.9 1025.0 0.0
28/02:30pm 11.9 5.6 3.9 58 3.6 SW 26 33 14 18 1024.9 1025.0 0.0
28/02:00pm 11.9 5.7 4.4 60 3.4 SW 26 33 14 18 1024.8 1024.9 0.0
28/01:30pm 12.3 6.2 4.8 60 3.5 SW 26 35 14 19 1024.7 1024.8 0.0
28/01:00pm 11.9 6.1 4.2 59 3.5 SSW 24 33 13 18 1025.0 1025.1 0.0
28/12:30pm 11.4 5.5 3.9 60 3.4 SSW 24 32 13 17 1025.2 1025.3 0.0
28/12:00pm 11.6 5.8 4.6 62 3.2 SSW 24 33 13 18 1025.3 1025.4 0.0
28/11:30am 11.2 5.2 3.5 59 3.4 SSW 24 35 13 19 1025.6 1025.7 0.0
28/11:00am 10.7 4.5 4.2 64 2.9 SW 26 32 14 17 1026.0 1026.1 0.0

Other Formats:

Comma delimited format used in spreadsheet applications
http://www.bom.gov.au/fwo/IDN60801/IDN60801.95527.axf

JavaScript Object Notation format (JSON) in row-major order
http://www.bom.gov.au/fwo/IDN60801/IDN60801.95527.json